sensor_id;sensor_type;location;lat;lon;timestamp;P1;durP1;ratioP1;P2;durP2;ratioP2
52838;SDS011;39219;53.678;9.856;2023-10-13T00:00:46;9.85;;;4.10;;
52838;SDS011;39219;53.678;9.856;2023-10-13T00:03:14;12.52;;;4.25;;
52838;SDS011;39219;53.678;9.856;2023-10-13T00:05:44;8.00;;;3.80;;
52838;SDS011;39219;53.678;9.856;2023-10-13T00:08:10;13.68;;;3.95;;
52838;SDS011;39219;53.678;9.856;2023-10-13T00:10:36;11.68;;;3.70;;
52838;SDS011;39219;53.678;9.856;2023-10-13T00:13:03;9.68;;;3.70;;
52838;SDS011;39219;53.678;9.856;2023-10-13T00:15:38;10.13;;;3.83;;
52838;SDS011;39219;53.678;9.856;2023-10-13T00:18:09;13.07;;;4.00;;
52838;SDS011;39219;53.678;9.856;2023-10-13T00:20:40;9.13;;;3.97;;
52838;SDS011;39219;53.678;9.856;2023-10-13T00:23:13;14.82;;;4.20;;
52838;SDS011;39219;53.678;9.856;2023-10-13T00:25:39;14.95;;;4.05;;
52838;SDS011;39219;53.678;9.856;2023-10-13T00:28:14;12.05;;;4.25;;
52838;SDS011;39219;53.678;9.856;2023-10-13T00:30:48;13.38;;;4.03;;
52838;SDS011;39219;53.678;9.856;2023-10-13T00:33:16;10.35;;;4.10;;
52838;SDS011;39219;53.678;9.856;2023-10-13T00:35:46;14.68;;;4.70;;
52838;SDS011;39219;53.678;9.856;2023-10-13T00:38:16;12.27;;;4.65;;
52838;SDS011;39219;53.678;9.856;2023-10-13T00:40:44;12.27;;;4.90;;
52838;SDS011;39219;53.678;9.856;2023-10-13T00:43:16;11.80;;;5.20;;
52838;SDS011;39219;53.678;9.856;2023-10-13T00:45:58;14.05;;;5.28;;
52838;SDS011;39219;53.678;9.856;2023-10-13T00:48:33;15.82;;;5.80;;
52838;SDS011;39219;53.678;9.856;2023-10-13T00:51:02;17.75;;;6.03;;
52838;SDS011;39219;53.678;9.856;2023-10-13T00:53:28;14.35;;;5.85;;
52838;SDS011;39219;53.678;9.856;2023-10-13T00:55:54;18.80;;;6.72;;
52838;SDS011;39219;53.678;9.856;2023-10-13T00:58:21;15.55;;;6.20;;
52838;SDS011;39219;53.678;9.856;2023-10-13T01:00:48;20.10;;;6.50;;
52838;SDS011;39219;53.678;9.856;2023-10-13T01:03:13;20.90;;;7.00;;
52838;SDS011;39219;53.678;9.856;2023-10-13T01:05:39;21.45;;;6.85;;
52838;SDS011;39219;53.678;9.856;2023-10-13T01:08:07;21.52;;;7.28;;
52838;SDS011;39219;53.678;9.856;2023-10-13T01:10:37;18.80;;;7.53;;
52838;SDS011;39219;53.678;9.856;2023-10-13T01:13:03;17.05;;;7.60;;
52838;SDS011;39219;53.678;9.856;2023-10-13T01:15:29;17.42;;;7.50;;
52838;SDS011;39219;53.678;9.856;2023-10-13T01:18:05;18.95;;;7.60;;
52838;SDS011;39219;53.678;9.856;2023-10-13T01:20:36;17.77;;;7.60;;
52838;SDS011;39219;53.678;9.856;2023-10-13T01:23:10;23.77;;;8.20;;
52838;SDS011;39219;53.678;9.856;2023-10-13T01:25:43;19.15;;;8.00;;
52838;SDS011;39219;53.678;9.856;2023-10-13T01:28:09;20.63;;;8.07;;
52838;SDS011;39219;53.678;9.856;2023-10-13T01:30:40;21.25;;;8.15;;
52838;SDS011;39219;53.678;9.856;2023-10-13T01:33:05;23.67;;;8.95;;
52838;SDS011;39219;53.678;9.856;2023-10-13T01:35:34;23.08;;;8.90;;
52838;SDS011;39219;53.678;9.856;2023-10-13T01:38:01;25.42;;;9.13;;
52838;SDS011;39219;53.678;9.856;2023-10-13T01:40:29;23.73;;;8.48;;
52838;SDS011;39219;53.678;9.856;2023-10-13T01:42:58;28.17;;;9.82;;
52838;SDS011;39219;53.678;9.856;2023-10-13T01:45:24;26.23;;;9.60;;
52838;SDS011;39219;53.678;9.856;2023-10-13T01:47:53;26.20;;;9.68;;
52838;SDS011;39219;53.678;9.856;2023-10-13T01:50:20;24.92;;;9.43;;
52838;SDS011;39219;53.678;9.856;2023-10-13T01:52:46;27.38;;;10.50;;
52838;SDS011;39219;53.678;9.856;2023-10-13T01:55:13;31.23;;;11.27;;
52838;SDS011;39219;53.678;9.856;2023-10-13T01:57:43;29.60;;;10.48;;
52838;SDS011;39219;53.678;9.856;2023-10-13T02:00:13;29.45;;;10.98;;
52838;SDS011;39219;53.678;9.856;2023-10-13T02:02:45;29.00;;;11.38;;
52838;SDS011;39219;53.678;9.856;2023-10-13T02:05:14;31.50;;;11.82;;
52838;SDS011;39219;53.678;9.856;2023-10-13T02:07:42;28.67;;;11.10;;
52838;SDS011;39219;53.678;9.856;2023-10-13T02:10:10;29.98;;;10.57;;
52838;SDS011;39219;53.678;9.856;2023-10-13T02:12:37;31.15;;;10.93;;
52838;SDS011;39219;53.678;9.856;2023-10-13T02:15:09;30.58;;;10.98;;
52838;SDS011;39219;53.678;9.856;2023-10-13T02:17:37;31.38;;;11.93;;
52838;SDS011;39219;53.678;9.856;2023-10-13T02:20:07;28.88;;;11.90;;
52838;SDS011;39219;53.678;9.856;2023-10-13T02:22:33;35.40;;;12.68;;
52838;SDS011;39219;53.678;9.856;2023-10-13T02:25:01;34.15;;;12.30;;
52838;SDS011;39219;53.678;9.856;2023-10-13T02:27:32;35.53;;;13.20;;
52838;SDS011;39219;53.678;9.856;2023-10-13T02:30:05;32.60;;;12.55;;
52838;SDS011;39219;53.678;9.856;2023-10-13T02:32:39;31.95;;;11.38;;
52838;SDS011;39219;53.678;9.856;2023-10-13T02:35:06;32.22;;;11.85;;
52838;SDS011;39219;53.678;9.856;2023-10-13T02:37:40;36.72;;;13.10;;
52838;SDS011;39219;53.678;9.856;2023-10-13T02:40:08;31.33;;;12.70;;
52838;SDS011;39219;53.678;9.856;2023-10-13T02:42:35;32.00;;;12.60;;
52838;SDS011;39219;53.678;9.856;2023-10-13T02:45:01;35.83;;;13.35;;
52838;SDS011;39219;53.678;9.856;2023-10-13T02:47:29;34.35;;;12.90;;
52838;SDS011;39219;53.678;9.856;2023-10-13T02:49:58;35.53;;;13.00;;
52838;SDS011;39219;53.678;9.856;2023-10-13T02:52:25;41.78;;;13.90;;
52838;SDS011;39219;53.678;9.856;2023-10-13T02:54:51;35.33;;;12.65;;
52838;SDS011;39219;53.678;9.856;2023-10-13T02:57:18;34.95;;;13.07;;
52838;SDS011;39219;53.678;9.856;2023-10-13T02:59:43;39.05;;;13.82;;
52838;SDS011;39219;53.678;9.856;2023-10-13T03:02:12;35.70;;;14.27;;
52838;SDS011;39219;53.678;9.856;2023-10-13T03:04:49;36.40;;;13.43;;
52838;SDS011;39219;53.678;9.856;2023-10-13T03:07:16;34.50;;;13.90;;
52838;SDS011;39219;53.678;9.856;2023-10-13T03:09:48;38.63;;;14.30;;
52838;SDS011;39219;53.678;9.856;2023-10-13T03:12:17;40.22;;;14.80;;
52838;SDS011;39219;53.678;9.856;2023-10-13T03:14:42;37.72;;;13.68;;
52838;SDS011;39219;53.678;9.856;2023-10-13T03:17:12;40.42;;;14.73;;
52838;SDS011;39219;53.678;9.856;2023-10-13T03:19:42;37.30;;;13.90;;
52838;SDS011;39219;53.678;9.856;2023-10-13T03:22:11;41.33;;;14.57;;
52838;SDS011;39219;53.678;9.856;2023-10-13T03:24:42;39.85;;;13.65;;
52838;SDS011;39219;53.678;9.856;2023-10-13T03:27:11;42.33;;;14.70;;
52838;SDS011;39219;53.678;9.856;2023-10-13T03:29:38;37.40;;;14.35;;
52838;SDS011;39219;53.678;9.856;2023-10-13T03:32:07;41.17;;;14.82;;
52838;SDS011;39219;53.678;9.856;2023-10-13T03:34:36;38.10;;;14.18;;
52838;SDS011;39219;53.678;9.856;2023-10-13T03:37:06;38.45;;;14.38;;
52838;SDS011;39219;53.678;9.856;2023-10-13T03:39:44;38.28;;;14.07;;
52838;SDS011;39219;53.678;9.856;2023-10-13T03:42:10;38.45;;;13.68;;
52838;SDS011;39219;53.678;9.856;2023-10-13T03:44:43;41.42;;;14.25;;
52838;SDS011;39219;53.678;9.856;2023-10-13T03:47:11;36.50;;;14.05;;
52838;SDS011;39219;53.678;9.856;2023-10-13T03:49:44;38.08;;;14.02;;
52838;SDS011;39219;53.678;9.856;2023-10-13T03:52:10;35.67;;;13.30;;
52838;SDS011;39219;53.678;9.856;2023-10-13T03:54:38;31.27;;;13.32;;
52838;SDS011;39219;53.678;9.856;2023-10-13T03:57:07;32.58;;;12.65;;
52838;SDS011;39219;53.678;9.856;2023-10-13T03:59:36;33.80;;;13.93;;
52838;SDS011;39219;53.678;9.856;2023-10-13T04:02:03;33.22;;;13.45;;
52838;SDS011;39219;53.678;9.856;2023-10-13T04:04:37;32.05;;;13.15;;
52838;SDS011;39219;53.678;9.856;2023-10-13T04:07:13;33.90;;;13.13;;
52838;SDS011;39219;53.678;9.856;2023-10-13T04:10:03;34.72;;;14.48;;
52838;SDS011;39219;53.678;9.856;2023-10-13T04:13:00;30.85;;;13.25;;
52838;SDS011;39219;53.678;9.856;2023-10-13T04:18:39;33.40;;;13.95;;
52838;SDS011;39219;53.678;9.856;2023-10-13T04:21:32;31.83;;;13.55;;
52838;SDS011;39219;53.678;9.856;2023-10-13T04:24:05;37.63;;;14.27;;
52838;SDS011;39219;53.678;9.856;2023-10-13T04:26:34;31.30;;;13.90;;
52838;SDS011;39219;53.678;9.856;2023-10-13T04:29:09;38.70;;;14.30;;
52838;SDS011;39219;53.678;9.856;2023-10-13T04:31:55;37.23;;;15.17;;
52838;SDS011;39219;53.678;9.856;2023-10-13T04:34:25;35.67;;;15.35;;
52838;SDS011;39219;53.678;9.856;2023-10-13T04:37:00;33.42;;;14.60;;
52838;SDS011;39219;53.678;9.856;2023-10-13T04:39:48;34.95;;;14.65;;
52838;SDS011;39219;53.678;9.856;2023-10-13T04:42:21;36.25;;;15.23;;
52838;SDS011;39219;53.678;9.856;2023-10-13T04:45:06;42.67;;;15.98;;
52838;SDS011;39219;53.678;9.856;2023-10-13T04:47:52;36.17;;;15.80;;
52838;SDS011;39219;53.678;9.856;2023-10-13T04:50:22;39.45;;;17.33;;
52838;SDS011;39219;53.678;9.856;2023-10-13T04:53:00;42.95;;;18.17;;
52838;SDS011;39219;53.678;9.856;2023-10-13T04:55:28;48.08;;;19.38;;
52838;SDS011;39219;53.678;9.856;2023-10-13T04:58:24;43.90;;;19.98;;
52838;SDS011;39219;53.678;9.856;2023-10-13T05:01:12;50.40;;;21.65;;
52838;SDS011;39219;53.678;9.856;2023-10-13T05:03:52;55.35;;;21.85;;
52838;SDS011;39219;53.678;9.856;2023-10-13T05:06:33;54.78;;;22.08;;
52838;SDS011;39219;53.678;9.856;2023-10-13T05:09:17;60.53;;;24.10;;
52838;SDS011;39219;53.678;9.856;2023-10-13T05:12:01;58.78;;;22.75;;
52838;SDS011;39219;53.678;9.856;2023-10-13T05:14:45;62.53;;;24.23;;
52838;SDS011;39219;53.678;9.856;2023-10-13T05:17:30;57.58;;;24.20;;
52838;SDS011;39219;53.678;9.856;2023-10-13T05:22:58;59.97;;;23.90;;
52838;SDS011;39219;53.678;9.856;2023-10-13T05:25:42;63.83;;;24.75;;
52838;SDS011;39219;53.678;9.856;2023-10-13T05:28:26;63.45;;;26.35;;
52838;SDS011;39219;53.678;9.856;2023-10-13T05:31:10;67.88;;;27.25;;
52838;SDS011;39219;53.678;9.856;2023-10-13T05:33:55;68.05;;;27.10;;
52838;SDS011;39219;53.678;9.856;2023-10-13T05:36:39;66.45;;;26.23;;
52838;SDS011;39219;53.678;9.856;2023-10-13T05:39:23;68.03;;;27.63;;
52838;SDS011;39219;53.678;9.856;2023-10-13T05:42:07;69.10;;;28.02;;
52838;SDS011;39219;53.678;9.856;2023-10-13T05:44:51;70.15;;;27.83;;
52838;SDS011;39219;53.678;9.856;2023-10-13T05:47:42;64.28;;;28.35;;
52838;SDS011;39219;53.678;9.856;2023-10-13T05:50:20;66.13;;;26.80;;
52838;SDS011;39219;53.678;9.856;2023-10-13T05:53:14;75.43;;;27.52;;
52838;SDS011;39219;53.678;9.856;2023-10-13T05:56:01;65.95;;;28.02;;
52838;SDS011;39219;53.678;9.856;2023-10-13T05:58:45;64.88;;;27.70;;
52838;SDS011;39219;53.678;9.856;2023-10-13T06:01:29;66.03;;;27.13;;
52838;SDS011;39219;53.678;9.856;2023-10-13T06:04:25;59.80;;;27.25;;
52838;SDS011;39219;53.678;9.856;2023-10-13T06:07:10;65.22;;;26.75;;
52838;SDS011;39219;53.678;9.856;2023-10-13T06:09:53;63.63;;;26.25;;
52838;SDS011;39219;53.678;9.856;2023-10-13T06:12:37;60.03;;;26.75;;
52838;SDS011;39219;53.678;9.856;2023-10-13T06:15:21;66.13;;;26.25;;
52838;SDS011;39219;53.678;9.856;2023-10-13T06:18:05;64.82;;;27.10;;
52838;SDS011;39219;53.678;9.856;2023-10-13T06:20:49;63.15;;;27.50;;
52838;SDS011;39219;53.678;9.856;2023-10-13T06:23:34;56.33;;;25.00;;
52838;SDS011;39219;53.678;9.856;2023-10-13T06:29:02;54.88;;;25.77;;
52838;SDS011;39219;53.678;9.856;2023-10-13T06:31:33;52.60;;;25.13;;
52838;SDS011;39219;53.678;9.856;2023-10-13T06:34:00;56.78;;;26.40;;
52838;SDS011;39219;53.678;9.856;2023-10-13T06:36:28;57.40;;;25.13;;
52838;SDS011;39219;53.678;9.856;2023-10-13T06:38:56;53.03;;;24.92;;
52838;SDS011;39219;53.678;9.856;2023-10-13T06:41:42;55.63;;;25.65;;
52838;SDS011;39219;53.678;9.856;2023-10-13T06:44:08;52.28;;;25.67;;
52838;SDS011;39219;53.678;9.856;2023-10-13T06:46:40;56.80;;;25.02;;
52838;SDS011;39219;53.678;9.856;2023-10-13T06:49:06;53.67;;;25.27;;
52838;SDS011;39219;53.678;9.856;2023-10-13T06:51:35;52.13;;;25.20;;
52838;SDS011;39219;53.678;9.856;2023-10-13T06:54:04;54.22;;;25.08;;
52838;SDS011;39219;53.678;9.856;2023-10-13T06:56:35;56.67;;;25.63;;
52838;SDS011;39219;53.678;9.856;2023-10-13T06:59:04;55.45;;;24.58;;
52838;SDS011;39219;53.678;9.856;2023-10-13T07:01:31;56.63;;;26.67;;
52838;SDS011;39219;53.678;9.856;2023-10-13T07:04:03;50.45;;;24.20;;
52838;SDS011;39219;53.678;9.856;2023-10-13T07:06:30;56.78;;;26.15;;
52838;SDS011;39219;53.678;9.856;2023-10-13T07:08:58;50.85;;;25.58;;
52838;SDS011;39219;53.678;9.856;2023-10-13T07:11:30;54.20;;;25.98;;
52838;SDS011;39219;53.678;9.856;2023-10-13T07:14:03;52.63;;;25.58;;
52838;SDS011;39219;53.678;9.856;2023-10-13T07:16:35;53.00;;;25.65;;
52838;SDS011;39219;53.678;9.856;2023-10-13T07:19:02;56.97;;;27.13;;
52838;SDS011;39219;53.678;9.856;2023-10-13T07:21:30;53.17;;;25.88;;
52838;SDS011;39219;53.678;9.856;2023-10-13T07:23:57;51.75;;;26.50;;
52838;SDS011;39219;53.678;9.856;2023-10-13T07:26:34;53.53;;;24.90;;
52838;SDS011;39219;53.678;9.856;2023-10-13T07:29:07;55.53;;;26.30;;
52838;SDS011;39219;53.678;9.856;2023-10-13T07:31:34;52.15;;;24.70;;
52838;SDS011;39219;53.678;9.856;2023-10-13T07:34:02;52.88;;;26.38;;
52838;SDS011;39219;53.678;9.856;2023-10-13T07:39:05;48.70;;;25.27;;
52838;SDS011;39219;53.678;9.856;2023-10-13T07:41:47;55.28;;;27.13;;
52838;SDS011;39219;53.678;9.856;2023-10-13T07:44:17;51.28;;;24.65;;
52838;SDS011;39219;53.678;9.856;2023-10-13T07:46:45;49.83;;;25.23;;
52838;SDS011;39219;53.678;9.856;2023-10-13T07:49:14;48.00;;;25.17;;
52838;SDS011;39219;53.678;9.856;2023-10-13T07:51:40;46.70;;;23.48;;
52838;SDS011;39219;53.678;9.856;2023-10-13T07:54:09;47.22;;;24.52;;
52838;SDS011;39219;53.678;9.856;2023-10-13T07:56:38;44.75;;;24.17;;
52838;SDS011;39219;53.678;9.856;2023-10-13T07:59:06;43.60;;;23.55;;
52838;SDS011;39219;53.678;9.856;2023-10-13T08:01:35;43.13;;;22.10;;
52838;SDS011;39219;53.678;9.856;2023-10-13T08:04:01;39.17;;;21.05;;
52838;SDS011;39219;53.678;9.856;2023-10-13T08:06:36;41.53;;;22.15;;
52838;SDS011;39219;53.678;9.856;2023-10-13T08:09:05;39.13;;;20.05;;
52838;SDS011;39219;53.678;9.856;2023-10-13T08:11:34;35.85;;;19.77;;
52838;SDS011;39219;53.678;9.856;2023-10-13T08:14:02;38.22;;;19.83;;
52838;SDS011;39219;53.678;9.856;2023-10-13T08:16:48;36.28;;;18.95;;
52838;SDS011;39219;53.678;9.856;2023-10-13T08:19:25;33.80;;;17.67;;
52838;SDS011;39219;53.678;9.856;2023-10-13T08:21:53;29.90;;;16.60;;
52838;SDS011;39219;53.678;9.856;2023-10-13T08:24:22;29.23;;;16.48;;
52838;SDS011;39219;53.678;9.856;2023-10-13T08:26:54;29.30;;;16.17;;
52838;SDS011;39219;53.678;9.856;2023-10-13T08:29:23;27.05;;;14.80;;
52838;SDS011;39219;53.678;9.856;2023-10-13T08:32:08;28.07;;;15.87;;
52838;SDS011;39219;53.678;9.856;2023-10-13T08:34:48;24.58;;;14.25;;
52838;SDS011;39219;53.678;9.856;2023-10-13T08:37:35;25.20;;;14.30;;
52838;SDS011;39219;53.678;9.856;2023-10-13T08:40:12;24.73;;;14.75;;
52838;SDS011;39219;53.678;9.856;2023-10-13T08:43:10;23.35;;;13.65;;
52838;SDS011;39219;53.678;9.856;2023-10-13T08:45:37;25.48;;;15.13;;
52838;SDS011;39219;53.678;9.856;2023-10-13T08:48:26;25.38;;;14.27;;
52838;SDS011;39219;53.678;9.856;2023-10-13T08:50:57;20.60;;;12.68;;
52838;SDS011;39219;53.678;9.856;2023-10-13T08:53:31;19.38;;;12.00;;
52838;SDS011;39219;53.678;9.856;2023-10-13T08:55:58;21.08;;;12.77;;
52838;SDS011;39219;53.678;9.856;2023-10-13T08:58:30;20.23;;;11.77;;
52838;SDS011;39219;53.678;9.856;2023-10-13T09:01:11;20.92;;;11.25;;
52838;SDS011;39219;53.678;9.856;2023-10-13T09:03:40;18.20;;;10.90;;
52838;SDS011;39219;53.678;9.856;2023-10-13T09:06:08;17.08;;;10.38;;
52838;SDS011;39219;53.678;9.856;2023-10-13T09:08:39;18.63;;;10.75;;
52838;SDS011;39219;53.678;9.856;2023-10-13T09:11:23;17.48;;;10.18;;
52838;SDS011;39219;53.678;9.856;2023-10-13T09:13:52;16.67;;;10.10;;
52838;SDS011;39219;53.678;9.856;2023-10-13T09:16:18;17.13;;;10.52;;
52838;SDS011;39219;53.678;9.856;2023-10-13T09:19:05;18.65;;;10.68;;
52838;SDS011;39219;53.678;9.856;2023-10-13T09:21:37;18.80;;;10.75;;
52838;SDS011;39219;53.678;9.856;2023-10-13T09:24:12;19.05;;;11.40;;
52838;SDS011;39219;53.678;9.856;2023-10-13T09:26:52;17.10;;;10.57;;
52838;SDS011;39219;53.678;9.856;2023-10-13T09:29:21;16.95;;;10.18;;
52838;SDS011;39219;53.678;9.856;2023-10-13T09:31:47;19.33;;;10.45;;
52838;SDS011;39219;53.678;9.856;2023-10-13T09:34:20;17.65;;;9.93;;
52838;SDS011;39219;53.678;9.856;2023-10-13T09:36:48;17.90;;;10.43;;
52838;SDS011;39219;53.678;9.856;2023-10-13T09:39:20;16.50;;;9.50;;
52838;SDS011;39219;53.678;9.856;2023-10-13T09:41:55;16.08;;;9.15;;
52838;SDS011;39219;53.678;9.856;2023-10-13T09:44:21;15.02;;;8.70;;
52838;SDS011;39219;53.678;9.856;2023-10-13T09:46:48;17.13;;;9.10;;
52838;SDS011;39219;53.678;9.856;2023-10-13T09:49:14;15.00;;;8.32;;
52838;SDS011;39219;53.678;9.856;2023-10-13T09:51:59;17.48;;;8.13;;
52838;SDS011;39219;53.678;9.856;2023-10-13T09:54:29;16.65;;;8.48;;
52838;SDS011;39219;53.678;9.856;2023-10-13T09:57:00;12.65;;;7.82;;
52838;SDS011;39219;53.678;9.856;2023-10-13T09:59:29;13.93;;;7.60;;
52838;SDS011;39219;53.678;9.856;2023-10-13T10:01:59;14.05;;;7.15;;
52838;SDS011;39219;53.678;9.856;2023-10-13T10:04:33;15.48;;;7.35;;
52838;SDS011;39219;53.678;9.856;2023-10-13T10:07:08;13.25;;;6.97;;
52838;SDS011;39219;53.678;9.856;2023-10-13T10:09:33;13.77;;;6.75;;
52838;SDS011;39219;53.678;9.856;2023-10-13T10:12:10;15.63;;;7.10;;
52838;SDS011;39219;53.678;9.856;2023-10-13T10:14:42;14.88;;;7.18;;
52838;SDS011;39219;53.678;9.856;2023-10-13T10:17:10;12.40;;;7.25;;
52838;SDS011;39219;53.678;9.856;2023-10-13T10:19:46;12.60;;;7.13;;
52838;SDS011;39219;53.678;9.856;2023-10-13T10:22:24;12.43;;;7.15;;
52838;SDS011;39219;53.678;9.856;2023-10-13T10:24:55;12.93;;;7.00;;
52838;SDS011;39219;53.678;9.856;2023-10-13T10:27:23;14.95;;;7.80;;
52838;SDS011;39219;53.678;9.856;2023-10-13T10:29:52;14.65;;;7.78;;
52838;SDS011;39219;53.678;9.856;2023-10-13T10:32:18;14.00;;;7.60;;
52838;SDS011;39219;53.678;9.856;2023-10-13T10:34:45;14.00;;;7.20;;
52838;SDS011;39219;53.678;9.856;2023-10-13T10:37:11;16.15;;;7.32;;
52838;SDS011;39219;53.678;9.856;2023-10-13T10:39:39;15.15;;;7.22;;
52838;SDS011;39219;53.678;9.856;2023-10-13T10:42:11;15.57;;;6.97;;
52838;SDS011;39219;53.678;9.856;2023-10-13T10:44:42;14.27;;;7.45;;
52838;SDS011;39219;53.678;9.856;2023-10-13T10:47:09;13.38;;;7.00;;
52838;SDS011;39219;53.678;9.856;2023-10-13T10:49:37;12.40;;;6.63;;
52838;SDS011;39219;53.678;9.856;2023-10-13T10:52:03;12.75;;;7.00;;
52838;SDS011;39219;53.678;9.856;2023-10-13T10:54:30;15.07;;;7.13;;
52838;SDS011;39219;53.678;9.856;2023-10-13T10:56:59;13.48;;;6.40;;
52838;SDS011;39219;53.678;9.856;2023-10-13T10:59:36;16.13;;;7.40;;
52838;SDS011;39219;53.678;9.856;2023-10-13T11:02:03;14.23;;;6.97;;
52838;SDS011;39219;53.678;9.856;2023-10-13T11:04:31;14.70;;;7.00;;
52838;SDS011;39219;53.678;9.856;2023-10-13T11:06:59;12.25;;;6.25;;
52838;SDS011;39219;53.678;9.856;2023-10-13T11:09:26;12.55;;;6.78;;
52838;SDS011;39219;53.678;9.856;2023-10-13T11:12:13;12.15;;;6.22;;
52838;SDS011;39219;53.678;9.856;2023-10-13T11:14:41;12.70;;;6.90;;
52838;SDS011;39219;53.678;9.856;2023-10-13T11:17:08;13.98;;;6.95;;
52838;SDS011;39219;53.678;9.856;2023-10-13T11:19:45;13.70;;;6.88;;
52838;SDS011;39219;53.678;9.856;2023-10-13T11:22:11;14.57;;;7.25;;
52838;SDS011;39219;53.678;9.856;2023-10-13T11:24:54;12.77;;;6.75;;
52838;SDS011;39219;53.678;9.856;2023-10-13T11:27:21;11.93;;;7.10;;
52838;SDS011;39219;53.678;9.856;2023-10-13T11:30:08;13.27;;;7.10;;
52838;SDS011;39219;53.678;9.856;2023-10-13T11:32:39;12.60;;;7.10;;
52838;SDS011;39219;53.678;9.856;2023-10-13T11:35:07;15.13;;;7.65;;
52838;SDS011;39219;53.678;9.856;2023-10-13T11:37:45;13.30;;;6.80;;
52838;SDS011;39219;53.678;9.856;2023-10-13T11:40:20;13.18;;;7.40;;
52838;SDS011;39219;53.678;9.856;2023-10-13T11:43:08;14.90;;;7.68;;
52838;SDS011;39219;53.678;9.856;2023-10-13T11:45:38;12.93;;;7.07;;
52838;SDS011;39219;53.678;9.856;2023-10-13T11:48:17;14.10;;;7.43;;
52838;SDS011;39219;53.678;9.856;2023-10-13T11:50:56;11.20;;;6.55;;
52838;SDS011;39219;53.678;9.856;2023-10-13T11:53:22;12.35;;;6.10;;
52838;SDS011;39219;53.678;9.856;2023-10-13T11:55:52;12.68;;;6.40;;
52838;SDS011;39219;53.678;9.856;2023-10-13T11:58:20;10.98;;;6.07;;
52838;SDS011;39219;53.678;9.856;2023-10-13T12:00:46;15.65;;;6.13;;
52838;SDS011;39219;53.678;9.856;2023-10-13T12:03:26;13.48;;;6.32;;
52838;SDS011;39219;53.678;9.856;2023-10-13T12:06:10;11.10;;;5.78;;
52838;SDS011;39219;53.678;9.856;2023-10-13T12:08:58;14.20;;;5.85;;
52838;SDS011;39219;53.678;9.856;2023-10-13T12:11:37;10.25;;;5.57;;
52838;SDS011;39219;53.678;9.856;2023-10-13T12:14:05;10.38;;;5.60;;
52838;SDS011;39219;53.678;9.856;2023-10-13T12:16:42;11.40;;;5.90;;
52838;SDS011;39219;53.678;9.856;2023-10-13T12:19:08;10.70;;;5.68;;
52838;SDS011;39219;53.678;9.856;2023-10-13T12:21:36;12.95;;;5.78;;
52838;SDS011;39219;53.678;9.856;2023-10-13T12:24:03;11.65;;;5.47;;
52838;SDS011;39219;53.678;9.856;2023-10-13T12:26:36;10.40;;;5.40;;
52838;SDS011;39219;53.678;9.856;2023-10-13T12:29:07;12.70;;;5.47;;
52838;SDS011;39219;53.678;9.856;2023-10-13T12:31:44;10.85;;;5.22;;
52838;SDS011;39219;53.678;9.856;2023-10-13T12:34:17;14.80;;;5.63;;
52838;SDS011;39219;53.678;9.856;2023-10-13T12:36:56;14.23;;;5.45;;
52838;SDS011;39219;53.678;9.856;2023-10-13T12:42:14;12.85;;;5.68;;
52838;SDS011;39219;53.678;9.856;2023-10-13T12:44:56;11.57;;;5.20;;
52838;SDS011;39219;53.678;9.856;2023-10-13T12:47:48;13.48;;;5.05;;
52838;SDS011;39219;53.678;9.856;2023-10-13T12:50:33;12.10;;;5.15;;
52838;SDS011;39219;53.678;9.856;2023-10-13T12:53:09;11.90;;;5.18;;
52838;SDS011;39219;53.678;9.856;2023-10-13T12:55:39;13.38;;;5.53;;
52838;SDS011;39219;53.678;9.856;2023-10-13T12:58:05;10.80;;;4.70;;
52838;SDS011;39219;53.678;9.856;2023-10-13T13:00:33;11.80;;;5.07;;
52838;SDS011;39219;53.678;9.856;2023-10-13T13:02:59;11.43;;;4.50;;
52838;SDS011;39219;53.678;9.856;2023-10-13T13:05:35;11.95;;;4.93;;
52838;SDS011;39219;53.678;9.856;2023-10-13T13:08:09;11.83;;;5.10;;
52838;SDS011;39219;53.678;9.856;2023-10-13T13:10:37;11.75;;;5.22;;
52838;SDS011;39219;53.678;9.856;2023-10-13T13:13:04;10.30;;;5.18;;
52838;SDS011;39219;53.678;9.856;2023-10-13T13:15:30;9.45;;;4.88;;
52838;SDS011;39219;53.678;9.856;2023-10-13T13:17:58;14.65;;;5.22;;
52838;SDS011;39219;53.678;9.856;2023-10-13T13:20:34;11.43;;;5.43;;
52838;SDS011;39219;53.678;9.856;2023-10-13T13:23:04;13.15;;;5.35;;
52838;SDS011;39219;53.678;9.856;2023-10-13T13:25:30;10.93;;;5.72;;
52838;SDS011;39219;53.678;9.856;2023-10-13T13:27:58;13.13;;;5.78;;
52838;SDS011;39219;53.678;9.856;2023-10-13T13:30:29;11.82;;;5.40;;
52838;SDS011;39219;53.678;9.856;2023-10-13T13:33:00;11.93;;;5.13;;
52838;SDS011;39219;53.678;9.856;2023-10-13T13:35:36;13.93;;;5.10;;
52838;SDS011;39219;53.678;9.856;2023-10-13T13:38:02;13.73;;;5.28;;
52838;SDS011;39219;53.678;9.856;2023-10-13T13:40:35;12.88;;;5.03;;
52838;SDS011;39219;53.678;9.856;2023-10-13T13:43:01;13.18;;;5.38;;
52838;SDS011;39219;53.678;9.856;2023-10-13T13:45:27;15.00;;;5.97;;
52838;SDS011;39219;53.678;9.856;2023-10-13T13:47:54;13.00;;;5.65;;
52838;SDS011;39219;53.678;9.856;2023-10-13T13:50:22;11.80;;;5.35;;
52838;SDS011;39219;53.678;9.856;2023-10-13T13:52:53;11.80;;;5.10;;
52838;SDS011;39219;53.678;9.856;2023-10-13T13:55:21;12.95;;;5.65;;
52838;SDS011;39219;53.678;9.856;2023-10-13T13:57:48;13.20;;;6.03;;
52838;SDS011;39219;53.678;9.856;2023-10-13T14:00:15;10.23;;;5.72;;
52838;SDS011;39219;53.678;9.856;2023-10-13T14:02:45;15.77;;;5.30;;
52838;SDS011;39219;53.678;9.856;2023-10-13T14:05:13;13.60;;;5.55;;
52838;SDS011;39219;53.678;9.856;2023-10-13T14:07:42;13.50;;;5.55;;
52838;SDS011;39219;53.678;9.856;2023-10-13T14:10:13;13.50;;;5.60;;
52838;SDS011;39219;53.678;9.856;2023-10-13T14:12:56;13.98;;;5.88;;
52838;SDS011;39219;53.678;9.856;2023-10-13T14:15:31;15.60;;;5.60;;
52838;SDS011;39219;53.678;9.856;2023-10-13T14:18:04;15.85;;;5.90;;
52838;SDS011;39219;53.678;9.856;2023-10-13T14:20:31;15.05;;;5.95;;
52838;SDS011;39219;53.678;9.856;2023-10-13T14:23:05;13.85;;;6.00;;
52838;SDS011;39219;53.678;9.856;2023-10-13T14:25:32;14.10;;;5.55;;
52838;SDS011;39219;53.678;9.856;2023-10-13T14:28:02;14.55;;;6.20;;
52838;SDS011;39219;53.678;9.856;2023-10-13T14:30:28;12.52;;;5.85;;
52838;SDS011;39219;53.678;9.856;2023-10-13T14:32:56;13.32;;;5.50;;
52838;SDS011;39219;53.678;9.856;2023-10-13T14:35:23;13.13;;;6.20;;
52838;SDS011;39219;53.678;9.856;2023-10-13T14:37:51;17.02;;;5.65;;
52838;SDS011;39219;53.678;9.856;2023-10-13T14:40:18;14.15;;;5.40;;
52838;SDS011;39219;53.678;9.856;2023-10-13T14:42:46;14.88;;;6.00;;
52838;SDS011;39219;53.678;9.856;2023-10-13T14:45:13;12.98;;;6.22;;
52838;SDS011;39219;53.678;9.856;2023-10-13T14:47:41;25.67;;;6.32;;
52838;SDS011;39219;53.678;9.856;2023-10-13T14:50:08;12.60;;;6.03;;
52838;SDS011;39219;53.678;9.856;2023-10-13T14:52:39;13.25;;;5.75;;
52838;SDS011;39219;53.678;9.856;2023-10-13T14:55:06;10.85;;;5.50;;
52838;SDS011;39219;53.678;9.856;2023-10-13T14:57:45;15.23;;;6.55;;
52838;SDS011;39219;53.678;9.856;2023-10-13T15:00:12;16.33;;;6.00;;
52838;SDS011;39219;53.678;9.856;2023-10-13T15:02:39;14.68;;;5.88;;
52838;SDS011;39219;53.678;9.856;2023-10-13T15:05:08;14.35;;;6.07;;
52838;SDS011;39219;53.678;9.856;2023-10-13T15:07:35;12.85;;;6.03;;
52838;SDS011;39219;53.678;9.856;2023-10-13T15:10:01;12.82;;;6.30;;
52838;SDS011;39219;53.678;9.856;2023-10-13T15:12:28;16.35;;;6.18;;